Time;durP1;ratioP1;P1;durP2;ratioP2;P2;SDS_P1;SDS_P2;PMS_P1;PMS_P2;Temp;Humidity;BMP_temperature;BMP_pressure;BME280_temperature;BME280_humidity;BME280_pressure;Samples;Min_cycle;Max_cycle;Signal;HPM_P1;HPM_P2
2022/02/23 00:07:49;;;;;;;19.90;8.10;;;;;;;0.22;79.82;99056.03;446987;1271;142834;-67
2022/02/23 00:17:55;;;;;;;13.30;7.60;;;;;;;0.16;79.93;99061.91;434822;1273;142224;-69
2022/02/23 00:28:01;;;;;;;12.20;7.70;;;;;;;0.24;79.58;99043.57;447147;1271;143907;-65
2022/02/23 00:38:07;;;;;;;11.90;6.80;;;;;;;0.39;79.66;99038.32;446973;1272;142324;-64
2022/02/23 00:48:13;;;;;;;13.10;6.80;;;;;;;0.54;79.28;99021.83;446468;1271;141712;-65
2022/02/23 00:58:19;;;;;;;13.10;6.70;;;;;;;0.63;78.97;99007.07;447080;1272;142034;-64
2022/02/23 01:08:25;;;;;;;16.40;6.30;;;;;;;0.72;78.52;98990.61;447152;1271;141581;-68
2022/02/23 01:18:34;;;;;;;17.90;6.70;;;;;;;0.81;78.04;98975.98;446411;1271;141205;-68
2022/02/23 01:28:40;;;;;;;12.30;5.00;;;;;;;0.91;77.73;98968.94;447206;1271;141834;-63
2022/02/23 01:38:46;;;;;;;13.20;5.20;;;;;;;1.00;77.16;98936.73;447188;1271;142129;-68
2022/02/23 01:48:52;;;;;;;15.80;5.80;;;;;;;1.06;76.99;98924.63;446357;1271;141635;-63
2022/02/23 01:58:58;;;;;;;10.70;5.70;;;;;;;1.13;76.67;98926.27;447291;1271;142049;-68
2022/02/23 02:09:04;;;;;;;13.80;5.70;;;;;;;1.22;76.34;98923.89;445301;1270;142796;-67
2022/02/23 02:19:10;;;;;;;12.60;6.10;;;;;;;1.32;76.15;98919.74;430481;1271;142968;-66
2022/02/23 02:29:16;;;;;;;11.10;4.30;;;;;;;1.32;77.09;98914.23;444421;1270;144813;-67
2022/02/23 02:39:23;;;;;;;8.00;5.00;;;;;;;1.12;78.19;98908.90;432004;1270;388273;-66
2022/02/23 02:49:29;;;;;;;11.80;5.00;;;;;;;0.96;78.71;98903.80;431226;1271;142174;-68
2022/02/23 02:59:35;;;;;;;10.00;5.10;;;;;;;0.82;79.30;98887.58;439855;1270;142699;-67
2022/02/23 03:09:42;;;;;;;9.90;5.10;;;;;;;0.78;79.78;98878.75;445854;1270;141838;-67
2022/02/23 03:19:48;;;;;;;10.10;5.50;;;;;;;0.79;80.13;98873.20;434923;1271;143754;-66
2022/02/23 03:29:54;;;;;;;10.40;6.00;;;;;;;0.74;80.46;98861.99;438760;1270;144295;-66
2022/02/23 03:40:00;;;;;;;8.80;5.70;;;;;;;0.69;80.73;98857.70;430780;1271;142817;-67
2022/02/23 03:50:07;;;;;;;13.70;5.70;;;;;;;0.62;81.21;98851.02;443010;1270;143262;-67
2022/02/23 04:00:13;;;;;;;;;;;;;;;0.66;81.46;98850.55;446512;1269;143825;-67
2022/02/23 04:10:20;;;;;;;10.10;5.50;;;;;;;0.71;81.97;98858.84;447548;1270;129880;-67
2022/02/23 04:20:25;;;;;;;;;;;;;;;0.81;82.47;98862.26;447457;1271;142280;-67
2022/02/23 04:30:31;;;;;;;13.30;5.10;;;;;;;0.95;82.90;98853.48;446873;1271;129176;-67
2022/02/23 04:40:37;;;;;;;7.60;4.00;;;;;;;1.16;83.31;98854.98;447323;1270;142611;-67
2022/02/23 04:50:43;;;;;;;10.10;4.80;;;;;;;1.38;83.77;98847.77;443680;1271;142592;-67
2022/02/23 05:00:49;;;;;;;5.30;3.90;;;;;;;1.60;84.09;98845.90;446390;1271;143363;-67
2022/02/23 05:10:57;;;;;;;5.70;3.90;;;;;;;1.81;84.50;98852.52;447258;1271;142710;-67
2022/02/23 05:21:03;;;;;;;5.30;3.90;;;;;;;2.01;84.80;98871.02;446538;1271;144144;-67
2022/02/23 05:31:09;;;;;;;5.30;3.30;;;;;;;2.29;85.34;98889.79;447314;1271;142710;-67
2022/02/23 05:41:15;;;;;;;6.10;3.00;;;;;;;2.59;85.30;98912.02;431547;1271;142729;-66
2022/02/23 05:51:34;;;;;;;7.60;2.50;;;;;;;2.79;84.66;98935.22;438116;1271;165334;-66
2022/02/23 06:01:40;;;;;;;6.10;2.60;;;;;;;2.88;84.31;98954.04;447262;1270;143110;-67
2022/02/23 06:11:46;;;;;;;11.10;3.50;;;;;;;2.95;83.98;98974.31;432957;1270;141355;-66
2022/02/23 06:21:54;;;;;;;16.00;4.50;;;;;;;3.01;83.41;98997.05;441156;1270;142420;-67
2022/02/23 06:32:04;;;;;;;9.50;3.30;;;;;;;3.15;83.42;99023.29;434021;1270;141191;-66
2022/02/23 06:42:11;;;;;;;7.40;2.50;;;;;;;3.30;82.53;99051.88;446295;1271;141567;-66
2022/02/23 06:52:20;;;;;;;7.10;2.40;;;;;;;3.60;81.98;99079.17;446714;1273;142442;-66
2022/02/23 07:02:25;;;;;;;12.30;4.10;;;;;;;4.02;80.42;99098.64;447229;1270;143123;-67
2022/02/23 07:12:31;;;;;;;11.40;2.50;;;;;;;4.16;79.36;99125.37;446439;1271;142896;-67
2022/02/23 07:22:37;;;;;;;6.30;2.60;;;;;;;3.95;78.55;99154.52;447266;1270;142737;-67
2022/02/23 07:32:43;;;;;;;12.90;3.50;;;;;;;3.91;78.50;99178.10;434964;1271;141512;-66
2022/02/23 07:42:49;;;;;;;10.90;4.10;;;;;;;4.17;78.52;99200.70;446542;1270;142814;-66
2022/02/23 07:53:09;;;;;;;12.00;3.20;;;;;;;4.19;77.98;99213.27;447097;1271;142106;-64
2022/02/23 08:03:15;;;;;;;7.90;2.40;;;;;;;4.05;78.18;99246.27;446536;1270;142557;-65
2022/02/23 08:13:20;;;;;;;8.50;3.00;;;;;;;4.19;78.06;99269.56;447487;1270;142490;-66
2022/02/23 08:23:26;;;;;;;13.40;3.50;;;;;;;3.97;78.55;99275.88;447260;1269;141841;-63
2022/02/23 08:33:32;;;;;;;7.00;3.20;;;;;;;4.08;78.53;99288.73;445933;1272;142281;-63
2022/02/23 08:43:38;;;;;;;11.00;4.10;;;;;;;4.23;78.51;99301.77;446913;1271;144043;-64
2022/02/23 08:53:44;;;;;;;7.60;2.80;;;;;;;4.81;77.92;99303.47;446992;1271;141307;-62
2022/02/23 09:03:50;;;;;;;10.30;3.30;;;;;;;6.16;76.66;99304.82;440901;1271;142098;-60
2022/02/23 09:13:57;;;;;;;4.50;2.50;;;;;;;11.86;70.95;99316.73;432997;1273;142338;-63
2022/02/23 09:24:08;;;;;;;4.80;2.80;;;;;;;10.66;65.93;99342.20;440783;1270;142131;-63
2022/02/23 09:34:15;;;;;;;11.80;3.90;;;;;;;8.64;67.11;99350.52;447318;1269;143171;-63
2022/02/23 09:44:21;;;;;;;11.90;4.30;;;;;;;7.88;68.25;99359.94;439765;1270;142105;-62
2022/02/23 09:54:27;;;;;;;6.20;2.70;;;;;;;8.30;67.88;99368.02;445662;1270;142590;-62
2022/02/23 10:04:35;;;;;;;7.10;2.90;;;;;;;8.50;66.35;99366.21;447255;1269;143768;-63
2022/02/23 10:14:42;;;;;;;6.80;2.40;;;;;;;7.96;64.73;99372.56;447353;1271;141896;-64
2022/02/23 10:24:48;;;;;;;6.60;2.30;;;;;;;7.92;64.73;99393.89;446385;1271;142861;-64
2022/02/23 10:34:56;;;;;;;10.70;3.70;;;;;;;7.44;63.84;99418.80;441183;1271;141832;-61
2022/02/23 10:45:06;;;;;;;7.10;2.10;;;;;;;7.09;64.01;99442.88;446436;1271;143086;-64
2022/02/23 10:55:22;;;;;;;8.20;2.30;;;;;;;6.57;64.30;99461.68;446279;1273;140838;-62
2022/02/23 11:05:30;;;;;;;6.50;2.00;;;;;;;6.07;63.96;99477.42;446879;1272;141323;-63
2022/02/23 11:15:36;;;;;;;6.70;1.90;;;;;;;5.66;63.58;99488.34;445907;1272;140822;-64
2022/02/23 11:25:43;;;;;;;7.70;1.80;;;;;;;5.62;64.27;99494.21;447229;1271;140904;-70
2022/02/23 11:35:51;;;;;;;6.80;2.30;;;;;;;5.48;64.03;99504.73;447111;1271;141140;-66
2022/02/23 11:46:14;;;;;;;14.10;2.90;;;;;;;5.60;63.97;99520.21;446104;1271;142304;-64
2022/02/23 11:56:21;;;;;;;7.20;2.10;;;;;;;5.75;64.19;99529.98;446912;1270;142135;-62
2022/02/23 12:07:11;;;;;;;7.60;2.20;;;;;;;6.04;63.61;99539.61;446377;1271;141519;-67
2022/02/23 12:17:58;;;;;;;9.70;2.50;;;;;;;6.39;63.23;99548.80;446705;1270;141766;-67
2022/02/23 12:28:07;;;;;;;12.70;3.10;;;;;;;6.72;62.54;99548.10;446862;1273;150722;-73
2022/02/23 12:38:15;;;;;;;6.60;1.80;;;;;;;6.90;61.83;99571.94;446865;1272;142697;-69
2022/02/23 12:48:30;;;;;;;7.30;2.20;;;;;;;7.07;61.86;99576.36;434947;1271;140601;-69
2022/02/23 12:58:39;;;;;;;7.40;2.20;;;;;;;7.10;60.54;99585.05;431636;1271;140317;-69
2022/02/23 13:08:50;;;;;;;6.90;2.00;;;;;;;6.89;61.23;99600.34;430512;1271;141660;-69
2022/02/23 13:19:02;;;;;;;8.60;3.00;;;;;;;6.67;61.09;99610.59;446392;1271;140953;-68
2022/02/23 13:29:11;;;;;;;8.20;2.10;;;;;;;6.57;61.08;99624.48;438509;1271;141484;-69
2022/02/23 13:39:19;;;;;;;4.00;1.60;;;;;;;6.54;60.49;99632.43;446502;1271;141673;-68
2022/02/23 13:49:26;;;;;;;5.20;1.70;;;;;;;6.59;60.21;99644.04;447175;1271;141447;-64
2022/02/23 13:59:32;;;;;;;10.00;2.50;;;;;;;6.57;60.25;99660.45;446996;1271;143557;-67
2022/02/23 14:09:39;;;;;;;5.20;1.90;;;;;;;6.60;60.52;99653.20;445805;1272;142374;-68
2022/02/23 14:19:45;;;;;;;7.10;2.40;;;;;;;6.67;59.48;99657.06;447076;1270;142643;-62
2022/02/23 14:29:52;;;;;;;8.70;3.20;;;;;;;6.51;59.15;99664.43;444623;1271;140443;-61
2022/02/23 14:40:00;;;;;;;5.30;1.60;;;;;;;6.58;59.15;99691.06;446310;1271;239141;-59
2022/02/23 14:50:10;;;;;;;;;;;;;;;6.42;59.25;99699.74;447274;1270;141363;-62
2022/02/23 15:00:21;;;;;;;10.60;2.50;;;;;;;6.26;59.29;99712.28;446829;1270;127030;-61
2022/02/23 15:10:28;;;;;;;6.10;1.90;;;;;;;6.17;59.64;99730.08;447317;1271;141436;-65
2022/02/23 15:20:34;;;;;;;12.50;2.90;;;;;;;6.22;59.24;99749.66;447146;1271;141524;-65
2022/02/23 15:30:41;;;;;;;8.40;2.20;;;;;;;6.01;59.25;99776.60;444132;1271;142305;-66
2022/02/23 15:40:47;;;;;;;10.70;1.80;;;;;;;5.94;59.56;99792.02;447393;1270;144136;-63
2022/02/23 15:50:53;;;;;;;6.10;1.60;;;;;;;5.88;59.49;99811.02;447159;1271;141892;-60
2022/02/23 16:00:59;;;;;;;13.10;3.70;;;;;;;5.68;60.04;99826.06;447171;1270;142930;-62
2022/02/23 16:11:05;;;;;;;5.90;2.30;;;;;;;5.33;59.91;99841.29;447373;1270;141029;-65
2022/02/23 16:21:12;;;;;;;6.60;2.10;;;;;;;4.92;60.14;99855.65;441781;1271;141733;-60
2022/02/23 16:31:19;;;;;;;3.00;1.50;;;;;;;4.59;61.05;99866.88;440275;1271;141007;-61
2022/02/23 16:41:25;;;;;;;6.80;2.30;;;;;;;4.35;61.20;99881.72;444598;1271;140378;-60
2022/02/23 16:51:31;;;;;;;4.50;1.80;;;;;;;4.20;61.43;99909.77;446070;1272;143695;-60
2022/02/23 17:01:37;;;;;;;5.50;2.20;;;;;;;4.19;61.31;99921.75;447018;1271;141619;-60
2022/02/23 17:11:45;;;;;;;7.20;2.20;;;;;;;4.23;61.72;99932.53;447123;1271;140844;-68
2022/02/23 17:21:52;;;;;;;8.20;2.30;;;;;;;3.87;62.04;99948.73;435029;1271;141962;-63
2022/02/23 17:31:58;;;;;;;10.10;2.50;;;;;;;3.53;62.61;99962.05;447157;1271;142588;-61
2022/02/23 17:42:04;;;;;;;7.60;3.50;;;;;;;3.23;63.48;99976.03;446276;1271;141921;-68
2022/02/23 17:52:10;;;;;;;5.40;3.10;;;;;;;3.06;63.88;99993.09;446989;1272;141872;-68
2022/02/23 18:02:17;;;;;;;8.30;3.20;;;;;;;2.80;64.53;100010.52;446968;1273;141994;-68
2022/02/23 18:12:43;;;;;;;12.30;5.50;;;;;;;2.53;65.14;100023.96;446164;1271;141981;-70
2022/02/23 18:22:49;;;;;;;12.40;5.70;;;;;;;2.32;65.57;100043.28;446890;1271;143069;-68
2022/02/23 18:32:55;;;;;;;13.50;6.00;;;;;;;2.17;66.23;100059.16;446842;1271;144487;-68
2022/02/23 18:43:01;;;;;;;21.10;7.20;;;;;;;2.00;66.75;100077.48;435429;1271;143517;-69
2022/02/23 18:53:07;;;;;;;20.50;7.10;;;;;;;1.76;67.26;100095.92;433076;1271;143331;-71
2022/02/23 19:03:13;;;;;;;15.90;7.50;;;;;;;1.56;67.78;100104.91;446310;1271;141066;-68
2022/02/23 19:13:19;;;;;;;16.40;8.10;;;;;;;1.34;68.23;100113.92;447046;1271;141528;-67
2022/02/23 19:23:26;;;;;;;18.70;6.70;;;;;;;1.20;68.75;100119.17;446977;1271;142950;-70
2022/02/23 19:33:32;;;;;;;18.50;8.10;;;;;;;1.04;68.89;100130.30;445809;1273;141831;-65
2022/02/23 19:43:38;;;;;;;38.00;14.70;;;;;;;0.96;69.13;100146.11;446923;1271;141992;-67
2022/02/23 19:53:44;;;;;;;18.50;7.70;;;;;;;0.90;69.41;100152.07;446772;1272;142188;-67
2022/02/23 20:03:50;;;;;;;21.50;8.10;;;;;;;0.80;69.52;100158.23;446231;1271;141884;-70
2022/02/23 20:13:58;;;;;;;27.90;11.00;;;;;;;0.62;69.66;100159.19;444185;1271;141891;-73
2022/02/23 20:24:04;;;;;;;22.70;11.30;;;;;;;0.42;69.87;100170.81;441036;1271;152069;-73
2022/02/23 20:34:10;;;;;;;29.20;13.00;;;;;;;0.19;70.12;100177.98;433925;1271;206895;-65
2022/02/23 20:44:16;;;;;;;21.30;11.00;;;;;;;-0.03;70.48;100182.36;443593;1271;144515;-64
2022/02/23 20:54:22;;;;;;;24.90;11.70;;;;;;;-0.24;70.77;100192.21;446148;1271;142835;-66
2022/02/23 21:04:28;;;;;;;22.00;11.60;;;;;;;-0.33;71.53;100195.40;446902;1273;141878;-66
2022/02/23 21:14:34;;;;;;;26.00;13.10;;;;;;;-0.46;71.71;100195.52;440267;1271;143089;-63
2022/02/23 21:24:39;;;;;;;20.20;11.30;;;;;;;-0.62;72.19;100202.86;428891;1271;142625;-69
2022/02/23 21:34:48;;;;;;;25.10;11.80;;;;;;;-0.69;73.11;100211.34;442942;1272;142579;-69
2022/02/23 21:44:59;;;;;;;22.40;11.70;;;;;;;-0.74;73.85;100207.43;446956;1271;142376;-70
2022/02/23 21:55:07;;;;;;;24.70;11.80;;;;;;;-0.89;73.76;100209.27;446409;1271;152657;-68
2022/02/23 22:05:13;;;;;;;22.50;13.20;;;;;;;-1.01;74.18;100214.84;446413;1271;142982;-69
2022/02/23 22:15:20;;;;;;;28.20;13.90;;;;;;;-1.13;74.50;100220.24;440292;1271;142319;-67
2022/02/23 22:25:29;;;;;;;22.80;12.10;;;;;;;-1.27;74.86;100218.25;446617;1272;142787;-67
2022/02/23 22:35:35;;;;;;;25.70;12.50;;;;;;;-1.35;75.32;100215.38;446879;1271;142101;-70
2022/02/23 22:45:41;;;;;;;25.40;13.70;;;;;;;-1.37;75.79;100225.02;441983;1271;144246;-74
2022/02/23 22:55:47;;;;;;;21.40;12.70;;;;;;;-1.22;76.36;100230.26;446203;1272;143035;-67
2022/02/23 23:06:13;;;;;;;32.00;15.20;;;;;;;-1.14;76.28;100226.42;429291;1273;142128;-66
2022/02/23 23:16:21;;;;;;;40.80;21.80;;;;;;;-1.29;76.33;100221.02;430389;1273;141631;-65
2022/02/23 23:26:27;;;;;;;27.60;15.60;;;;;;;-1.42;76.79;100214.90;441681;1272;142947;-65
2022/02/23 23:36:33;;;;;;;24.90;14.20;;;;;;;-1.58;76.68;100210.14;446067;1272;144156;-65
2022/02/23 23:46:39;;;;;;;26.10;14.40;;;;;;;-1.76;76.72;100211.25;447107;1271;142316;-66
2022/02/23 23:56:45;;;;;;;29.00;16.20;;;;;;;-1.88;76.95;100204.23;447150;1271;142592;-66
